Latest Weather Observations for Nullo Mountain

IDN60801

Issued at 4:03 am EST Friday 31 July 2015 (issued every 30 minutes, with the page automatically refreshed every 10 minutes)

About weather observations | Map of weather stations | Latest weather observations for NSW | Other Formats
Station Details ID: 062100 Name: NULLO MOUNTAIN AWS Lat: -32.72 Lon: 150.23 Height: 1130.0 m
Data from the previous 72 hours. | See also: Recent months at Nullo Mountain
Date/Time
EST
Temp
°C
App
Temp
°C
Dew
Point
Rel
Hum
%
Delta-T
°C
Wind Press
QNH
hPa
Press
MSL
hPa
Rain
since 9 am
mm
Dir
 
Spd
km/h
Gust
km/h
Spd
kts
Gust
kts
31/04:00am 4.4 0.4 2.8 89 0.7 WNW 13 28 7 15 - - 0.0
31/03:30am 4.7 0.3 2.9 88 0.8 WNW 15 30 8 16 - - 0.0
31/03:00am 4.7 0.3 2.7 87 0.9 WNW 15 24 8 13 - - 0.0
31/02:30am 4.9 0.9 2.9 87 0.9 NW 13 20 7 11 - - 0.0
31/02:00am 4.8 0.8 3.1 89 0.8 WNW 13 30 7 16 - - 0.0
31/01:30am 4.8 0.5 3.1 89 0.8 WNW 15 24 8 13 - - 0.0
31/01:00am 4.8 0.5 3.3 90 0.7 WNW 15 30 8 16 - - 0.0
31/12:30am 4.8 0.5 3.3 90 0.7 NW 15 32 8 17 - - 0.0
31/12:00am 4.7 0.8 3.2 90 0.7 NW 13 26 7 14 - - 0.0
 
Date/Time
EST
Temp
°C
App
Temp
°C
Dew
Point
Rel
Hum
%
Delta-T
°C
Wind Press
QNH
hPa
Press
MSL
hPa
Rain
since 9 am
mm
Dir
 
Spd
km/h
Gust
km/h
Spd
kts
Gust
kts
30/11:30pm 4.8 0.8 3.1 89 0.8 NW 13 22 7 12 - - 0.0
30/11:00pm 4.9 1.0 3.2 89 0.8 NW 13 24 7 13 - - 0.0
30/10:30pm 5.1 0.8 3.1 87 0.9 NW 15 28 8 15 - - 0.0
30/10:00pm 5.1 0.8 3.0 86 0.9 NW 15 28 8 15 - - 0.0
30/09:30pm 5.2 0.5 2.9 85 1.0 NW 17 30 9 16 - - 0.0
30/09:00pm 5.2 0.8 2.7 84 1.1 NW 15 26 8 14 - - 0.0
30/08:30pm 5.1 1.1 2.8 85 1.0 NW 13 22 7 12 - - 0.0
30/08:00pm 5.3 0.5 2.7 83 1.1 NW 17 30 9 16 - - 0.0
30/07:30pm 5.3 1.2 2.5 82 1.2 NW 13 26 7 14 - - 0.0
30/07:00pm 5.7 1.3 2.5 80 1.4 NW 15 24 8 13 - - 0.0
30/06:30pm 6.0 1.5 2.3 77 1.6 NW 15 28 8 15 - - 0.0
30/06:00pm 6.2 2.6 2.8 79 1.5 NW 11 22 6 12 - - 0.0
30/05:30pm 6.6 2.6 2.7 76 1.7 NW 13 24 7 13 - - 0.0
30/05:00pm 7.0 3.0 2.9 75 1.8 NW 13 22 7 12 - - 0.0
30/04:30pm 7.4 3.4 2.7 72 2.1 NW 13 28 7 15 - - 0.0
30/04:00pm 8.1 3.6 2.4 67 2.6 NW 15 28 8 15 - - 0.0
30/03:30pm 8.2 3.6 1.8 64 2.8 NW 15 26 8 14 - - 0.0
30/03:00pm 8.9 3.9 1.1 58 3.4 NW 17 33 9 18 - - 0.0
30/02:30pm 9.6 4.5 1.0 55 3.8 NW 17 32 9 17 - - 0.0
30/02:00pm 9.2 4.8 0.4 54 3.8 NW 13 24 7 13 - - 0.0
30/01:30pm 9.1 3.8 -0.5 51 4.1 NW 17 33 9 18 - - 0.0
30/01:00pm 9.4 4.4 1.1 56 3.7 NW 17 28 9 15 - - 0.0
30/12:30pm 9.5 4.7 2.4 61 3.2 NW 17 35 9 19 - - 0.0
30/12:00pm 8.8 4.2 1.7 61 3.2 NW 15 24 8 13 - - 0.0
30/11:30am 8.1 3.1 1.3 62 3.0 NW 17 33 9 18 - - 0.0
30/11:00am 8.0 2.7 1.6 64 2.8 NNW 19 32 10 17 - - 0.0
30/10:30am 7.7 2.7 1.3 64 2.8 NW 17 33 9 18 - - 0.0
30/10:00am 7.0 1.5 0.7 64 2.7 NW 19 32 10 17 - - 0.0
30/09:30am 6.4 1.2 0.3 65 2.6 NW 17 28 9 15 - - 0.0
30/09:00am 5.8 0.5 -0.3 65 2.5 NW 17 30 9 16 - - 0.0
30/08:30am 5.4 1.0 0.2 69 2.2 NW 13 22 7 12 - - 0.0
30/08:00am 4.7 0.3 0.1 72 1.9 NW 13 20 7 11 - - 0.0
30/07:30am 4.1 -0.4 -0.5 72 1.8 NW 13 24 7 13 - - 0.0
30/07:00am 4.0 -0.5 -0.4 73 1.8 NW 13 24 7 13 - - 0.0
30/06:30am 4.4 -0.1 -0.6 70 2.0 NW 13 22 7 12 - - 0.0
30/06:00am 4.5 0.0 -0.1 72 1.9 NW 13 26 7 14 - - 0.0
30/05:30am 4.2 0.2 0.2 75 1.6 NNW 11 19 6 10 - - 0.0
30/05:00am 4.2 0.1 -0.4 72 1.9 NNW 11 19 6 10 - - 0.0
30/04:30am 4.3 0.0 1.0 79 1.4 NNW 13 22 7 12 - - 0.0
30/04:00am 4.6 -0.4 1.5 80 1.3 NNW 17 26 9 14 - - 0.0
30/03:30am 4.5 -0.3 2.4 86 0.9 NNW 17 24 9 13 - - 0.0
30/03:00am 3.7 0.0 2.2 90 0.6 N 11 19 6 10 - - 0.0
30/02:30am 3.8 0.1 2.2 89 0.7 N 11 17 6 9 - - 0.0
30/02:00am 3.9 0.7 2.9 93 0.4 N 9 15 5 8 - - 0.0
30/01:30am 4.0 0.8 3.0 93 0.4 N 9 15 5 8 - - 0.0
30/01:00am 3.5 0.5 2.3 92 0.5 N 7 13 4 7 - - 0.0
30/12:30am 3.6 0.8 2.3 91 0.6 N 6 7 3 4 - - 0.0
30/12:00am 3.8 1.0 1.8 87 0.8 N 6 9 3 5 - - 0.0
 
Date/Time
EST
Temp
°C
App
Temp
°C
Dew
Point
Rel
Hum
%
Delta-T
°C
Wind Press
QNH
hPa
Press
MSL
hPa
Rain
since 9 am
mm
Dir
 
Spd
km/h
Gust
km/h
Spd
kts
Gust
kts
29/11:30pm 3.4 0.4 0.5 81 1.2 NNE 6 7 3 4 - - 0.0
29/11:00pm 3.9 1.3 1.1 82 1.2 N 4 7 2 4 - - 0.0
29/10:30pm 4.2 1.7 1.4 82 1.2 N 4 6 2 3 - - 0.0
29/10:00pm 4.0 1.5 1.4 83 1.1 NNW 4 7 2 4 - - 0.0
29/09:30pm 2.1 -0.8 -1.0 80 1.2 N 4 6 2 3 - - 0.0
29/09:00pm 3.0 -0.1 0.1 81 1.2 N 6 6 3 3 - - 0.0
29/08:30pm 1.9 -0.6 -0.8 82 1.1 NNE 2 4 1 2 - - 0.0
29/08:00pm 2.2 0.2 -0.1 85 0.9 CALM 0 2 0 1 - - 0.0
29/07:30pm 2.4 0.5 0.5 87 0.8 CALM 0 2 0 1 - - 0.0
29/07:00pm 3.7 1.2 1.4 85 1.0 N 4 4 2 2 - - 0.0
29/06:30pm 3.2 1.0 0.8 84 1.0 NNE 2 4 1 2 - - 0.0
29/06:00pm 4.5 2.1 2.0 84 1.1 NNW 4 4 2 2 - - 0.0
29/05:30pm 4.3 2.5 1.3 81 1.3 CALM 0 0 0 0 - - 0.0
29/05:00pm 6.2 3.8 2.3 76 1.7 N 4 6 2 3 - - 0.0
29/04:30pm 7.0 4.6 2.3 72 2.1 NNE 4 7 2 4 - - 0.0
29/04:00pm 8.1 5.4 2.8 69 2.4 NNE 6 9 3 5 - - 0.0
29/03:30pm 7.7 4.9 1.8 66 2.6 NNW 6 7 3 4 - - 0.0
29/03:00pm 9.2 6.5 2.5 63 3.0 NNE 6 15 3 8 - - 0.0
29/02:30pm 9.1 6.2 1.5 59 3.4 N 6 9 3 5 - - 0.0
29/02:00pm 8.7 5.3 2.1 63 3.0 N 9 17 5 9 - - 0.0
29/01:30pm 9.1 4.9 1.8 60 3.3 N 13 19 7 10 - - 0.0
29/01:00pm 9.0 5.3 2.1 62 3.1 NNE 11 19 6 10 - - 0.0
29/12:30pm 9.0 5.4 2.8 65 2.8 N 11 17 6 9 - - 0.0
29/12:00pm 8.5 5.2 2.3 65 2.8 NNE 9 17 5 9 - - 0.0
29/11:30am 7.7 4.0 2.4 69 2.4 NNE 11 19 6 10 - - 0.0
29/11:00am 7.5 3.8 2.6 71 2.2 NE 11 20 6 11 - - 0.0
29/10:30am 6.9 2.9 2.6 74 1.9 NNE 13 22 7 12 - - 0.0
29/10:00am 6.0 2.8 3.0 81 1.3 ENE 9 17 5 9 - - 0.0
29/09:30am 5.2 2.4 2.9 85 1.0 ENE 7 19 4 10 - - 0.0
29/09:00am 5.2 2.4 3.2 87 0.9 ENE 7 17 4 9 - - 0.2
29/08:30am 4.1 1.3 2.1 87 0.9 ENE 6 17 3 9 - - 0.2
29/08:00am 3.7 0.4 2.2 90 0.6 ENE 9 17 5 9 - - 0.2
29/07:30am 2.7 -0.3 2.0 95 0.3 ENE 7 11 4 6 - - 0.2
29/07:00am 2.7 -0.3 2.3 97 0.2 ENE 7 15 4 8 - - 0.2
29/06:30am 2.5 -1.3 1.9 96 0.3 ENE 11 17 6 9 - - 0.0
29/06:00am 1.9 -1.7 0.9 93 0.4 E 9 15 5 8 - - 0.0
29/05:30am 1.6 -3.2 0.1 90 0.6 E 15 19 8 10 - - 0.0
29/05:00am 2.1 -3.1 0.2 87 0.8 E 17 22 9 12 - - 0.0
29/04:30am 2.2 -3.0 -0.2 84 1.0 E 17 22 9 12 - - 0.0
29/04:00am 1.7 -2.4 -0.5 85 0.9 E 11 19 6 10 - - 0.0
29/03:30am 1.1 -3.0 -0.4 90 0.6 E 11 15 6 8 - - 0.0
29/03:00am -0.1 -3.4 -1.4 91 0.5 E 6 11 3 6 - - 0.0
29/02:30am -0.7 -3.7 -2.1 90 0.5 ESE 4 4 2 2 - - 0.0
29/02:00am -0.2 -2.4 -1.9 88 0.6 CALM 0 0 0 0 - - 0.0
29/01:30am 0.5 -1.7 -1.3 88 0.7 CALM 0 2 0 1 - - 0.0
29/01:00am 1.0 -1.1 -0.9 87 0.7 CALM 0 0 0 0 - - 0.0
29/12:30am 0.8 -1.7 -1.1 87 0.7 ESE 2 2 1 1 - - 0.0
29/12:00am 0.8 -1.8 -1.4 85 0.9 ENE 2 6 1 3 - - 0.0
 
Date/Time
EST
Temp
°C
App
Temp
°C
Dew
Point
Rel
Hum
%
Delta-T
°C
Wind Press
QNH
hPa
Press
MSL
hPa
Rain
since 9 am
mm
Dir
 
Spd
km/h
Gust
km/h
Spd
kts
Gust
kts
28/11:30pm 1.1 -1.0 -1.1 85 0.8 CALM 0 2 0 1 - - 0.0
28/11:00pm 1.3 -1.3 -1.4 82 1.0 ENE 2 4 1 2 - - 0.0
28/10:30pm 1.5 -1.0 -0.9 84 0.9 ENE 2 4 1 2 - - 0.0
28/10:00pm 1.6 -1.7 -1.1 82 1.0 ENE 6 11 3 6 - - 0.0
28/09:30pm 2.0 -2.0 -2.0 75 1.5 ESE 9 13 5 7 - - 0.0
28/09:00pm 1.7 -1.8 -1.5 79 1.2 ESE 7 9 4 5 - - 0.0
28/08:30pm 1.5 -1.8 -1.6 80 1.2 E 6 6 3 3 - - 0.0
28/08:00pm 1.4 -1.6 -1.8 79 1.2 SE 4 7 2 4 - - 0.0
28/07:30pm 2.1 -0.1 -1.5 77 1.4 CALM 0 0 0 0 - - 0.0
28/07:00pm 1.7 -0.5 -1.9 77 1.4 CALM 0 0 0 0 - - 0.0
28/06:30pm 2.4 0.2 -1.4 76 1.5 CALM 0 0 0 0 - - 0.0
28/06:00pm 2.4 -0.2 -1.9 73 1.6 SE 2 4 1 2 - - 0.0
28/05:30pm 3.1 0.9 -1.6 71 1.8 CALM 0 0 0 0 - - 0.0
28/05:00pm 5.1 2.6 -1.1 64 2.5 S 2 4 1 2 - - 0.0
28/04:30pm 6.5 3.5 -2.1 54 3.4 S 4 6 2 3 - - 0.0
28/04:00pm 6.8 3.2 -3.4 48 3.9 S 6 7 3 4 - - 0.0
28/03:30pm 7.5 4.3 -3.6 45 4.3 WSW 4 7 2 4 - - 0.0
28/03:00pm 8.3 4.7 -3.5 43 4.6 WSW 6 11 3 6 - - 0.0
28/02:30pm 7.7 3.5 -3.5 45 4.3 S 9 13 5 7 - - 0.0
28/02:00pm 7.4 3.5 -4.7 42 4.5 ESE 7 13 4 7 - - 0.0
28/01:30pm 7.1 3.2 -4.3 44 4.3 S 7 13 4 7 - - 0.0
28/01:00pm 7.4 3.6 -3.7 45 4.3 SSW 7 13 4 7 - - 0.0
28/12:30pm 7.1 3.4 -2.6 50 3.8 SSW 7 13 4 7 - - 0.0
28/12:00pm 6.8 3.5 -4.0 46 4.1 S 4 6 2 3 - - 0.0
28/11:30am 6.0 2.2 -5.3 44 4.1 SE 6 9 3 5 - - 0.0
28/11:00am 6.2 2.3 -4.8 45 4.1 ESE 7 11 4 6 - - 0.0
28/10:30am 4.8 1.9 -1.4 64 2.5 S 4 6 2 3 - - 0.0
28/10:00am 3.2 -0.7 -1.2 73 1.7 SSW 9 13 5 7 - - 0.0
28/09:30am 2.8 -1.1 -1.2 75 1.6 SW 9 13 5 7 - - 0.0
28/09:00am 1.8 -2.5 -2.0 76 1.4 SSW 11 15 6 8 - - 0.0
28/08:30am 0.8 -4.0 -2.2 80 1.2 SSW 13 19 7 10 - - 0.0
28/08:00am 0.2 -4.6 -2.5 82 1.0 SSW 13 20 7 11 - - 0.0
28/07:30am -0.3 -5.5 -2.8 83 0.9 SSW 15 20 8 11 - - 0.0
28/07:00am -0.7 -5.6 -3.1 84 0.8 SSW 13 20 7 11 - - 0.0
28/06:30am -0.9 -5.7 -2.9 86 0.7 SSW 13 17 7 9 - - 0.0
28/06:00am -0.9 -6.1 -2.9 86 0.7 SSW 15 22 8 12 - - 0.0
28/05:30am -0.7 -5.9 -2.9 85 0.8 SSW 15 24 8 13 - - 0.0
28/05:00am -0.9 -5.7 -2.9 86 0.7 SSW 13 20 7 11 - - 0.0
28/04:30am -0.9 -5.3 -2.8 87 0.6 SSW 11 19 6 10 - - 0.0

Other Formats:

Comma delimited format used in spreadsheet applications
http://www.bom.gov.au/fwo/IDN60801/IDN60801.94754.axf

JavaScript Object Notation format (JSON) in row-major order
http://www.bom.gov.au/fwo/IDN60801/IDN60801.94754.json